Time;durP1;ratioP1;P1;durP2;ratioP2;P2;SDS_P1;SDS_P2;PMS_P1;PMS_P2;Temp;Humidity;BMP_temperature;BMP_pressure;BME280_temperature;BME280_humidity;BME280_pressure;Samples;Min_cycle;Max_cycle;Signal;HPM_P1;HPM_P2
2023/02/21 09:57:25;;;;;;;26.37;16.90;;;;;;;;;;6204721;22;1241981;-80
2023/02/21 09:59:51;;;;;;;22.77;16.47;;;;;;;;;;6211455;23;20261;-80
2023/02/21 10:02:38;;;;;;;22.23;16.90;;;;;;;;;;6212494;23;20253;-80
2023/02/21 10:05:07;;;;;;;21.53;16.27;;;;;;;;;;6210154;23;20154;-80
2023/02/21 10:07:40;;;;;;;22.73;16.27;;;;;;;;;;6205087;23;20617;-79
2023/02/21 10:10:09;;;;;;;22.80;15.60;;;;;;;;;;6203671;23;20147;-80
2023/02/21 10:12:43;;;;;;;20.30;14.40;;;;;;;;;;6202343;23;20232;-80
2023/02/21 10:15:24;;;;;;;21.70;15.53;;;;;;;;;;6200362;23;20594;-79
2023/02/21 10:17:56;;;;;;;21.07;15.23;;;;;;;;;;6202102;23;20177;-80
2023/02/21 10:20:28;;;;;;;20.23;14.80;;;;;;;;;;6204723;23;20146;-86
2023/02/21 10:22:54;;;;;;;17.77;14.37;;;;;;;;;;6179606;23;20169;-81
2023/02/21 10:25:22;;;;;;;19.10;13.63;;;;;;;;;;6206372;23;20209;-81
2023/02/21 10:27:50;;;;;;;19.23;13.57;;;;;;;;;;6209765;23;20613;-81
2023/02/21 10:30:36;;;;;;;18.43;13.40;;;;;;;;;;6205761;23;20163;-81
2023/02/21 10:33:06;;;;;;;18.07;13.57;;;;;;;;;;6206732;23;20192;-82
2023/02/21 10:35:35;;;;;;;16.87;13.37;;;;;;;;;;6204810;23;20154;-78
2023/02/21 10:38:03;;;;;;;17.77;14.00;;;;;;;;;;6204595;23;20178;-80
2023/02/21 10:40:35;;;;;;;18.53;14.13;;;;;;;;;;6204088;23;20169;-79
2023/02/21 10:43:01;;;;;;;17.10;13.40;;;;;;;;;;6206142;23;20589;-79
2023/02/21 10:45:32;;;;;;;17.30;13.37;;;;;;;;;;6205235;23;20142;-78
2023/02/21 10:48:16;;;;;;;18.80;13.60;;;;;;;;;;6207043;23;20201;-79
2023/02/21 10:50:50;;;;;;;18.03;12.93;;;;;;;;;;6201696;23;20146;-81
2023/02/21 10:53:24;;;;;;;21.13;15.47;;;;;;;;;;6204771;23;20257;-79
2023/02/21 10:56:09;;;;;;;19.97;14.73;;;;;;;;;;6205260;23;20196;-78
2023/02/21 10:58:36;;;;;;;20.60;15.70;;;;;;;;;;6204243;23;20208;-78
2023/02/21 11:01:11;;;;;;;21.70;15.50;;;;;;;;;;6204076;23;20250;-80
2023/02/21 11:03:42;;;;;;;19.87;14.97;;;;;;;;;;6206644;23;20146;-80
2023/02/21 11:06:09;;;;;;;22.73;15.63;;;;;;;;;;6202118;23;20257;-81
2023/02/21 11:08:37;;;;;;;22.97;16.23;;;;;;;;;;6206651;23;20503;-80
2023/02/21 11:11:03;;;;;;;22.20;16.17;;;;;;;;;;6207408;23;20146;-79
2023/02/21 11:13:30;;;;;;;22.17;15.83;;;;;;;;;;6204417;23;20185;-78
2023/02/21 11:16:17;;;;;;;21.40;15.50;;;;;;;;;;6205895;23;20587;-79
2023/02/21 11:18:43;;;;;;;21.77;15.83;;;;;;;;;;6203414;23;20174;-80
2023/02/21 11:21:14;;;;;;;21.53;15.47;;;;;;;;;;6206048;23;20218;-80
2023/02/21 11:24:01;;;;;;;21.43;15.33;;;;;;;;;;6206619;23;20536;-79
2023/02/21 11:26:29;;;;;;;19.40;14.73;;;;;;;;;;6205155;23;20149;-80
2023/02/21 11:28:55;;;;;;;18.93;14.33;;;;;;;;;;6205093;23;20154;-80
2023/02/21 11:31:28;;;;;;;18.30;14.17;;;;;;;;;;6207660;23;20241;-80
2023/02/21 11:33:57;;;;;;;17.77;13.80;;;;;;;;;;6207322;23;20165;-79
2023/02/21 11:36:27;;;;;;;18.87;13.97;;;;;;;;;;6206488;23;20217;-78
2023/02/21 11:39:01;;;;;;;18.35;14.18;;;;;;;;;;6207761;23;20611;-81
2023/02/21 11:41:29;;;;;;;18.98;14.25;;;;;;;;;;6207554;23;20146;-81
2023/02/21 11:43:55;;;;;;;18.83;13.82;;;;;;;;;;6206780;23;20159;-80
2023/02/21 11:46:33;;;;;;;17.10;13.10;;;;;;;;;;6205959;23;20158;-79
2023/02/21 11:49:06;;;;;;;17.00;12.87;;;;;;;;;;6206313;23;20343;-78
2023/02/21 11:51:32;;;;;;;17.58;12.30;;;;;;;;;;6203483;23;20154;-78
2023/02/21 11:53:59;;;;;;;17.33;13.00;;;;;;;;;;6205642;23;20252;-78
2023/02/21 11:56:34;;;;;;;16.97;12.47;;;;;;;;;;6204506;23;20194;-77
2023/02/21 11:59:10;;;;;;;17.00;13.07;;;;;;;;;;6202664;23;20689;-80
2023/02/21 12:01:39;;;;;;;16.73;12.47;;;;;;;;;;6202925;23;20186;-80
2023/02/21 12:04:24;;;;;;;15.80;12.13;;;;;;;;;;6207197;23;20153;-78
2023/02/21 12:07:15;;;;;;;16.57;12.53;;;;;;;;;;6206583;23;20180;-78
2023/02/21 12:09:59;;;;;;;14.00;11.25;;;;;;;;;;6207422;23;20147;-79
2023/02/21 12:12:25;;;;;;;15.23;12.02;;;;;;;;;;6207831;23;20158;-78
2023/02/21 12:15:10;;;;;;;14.60;11.13;;;;;;;;;;6206710;23;21190;-80
2023/02/21 12:18:03;;;;;;;14.75;11.65;;;;;;;;;;6206698;23;20173;-79
2023/02/21 12:20:44;;;;;;;13.60;11.05;;;;;;;;;;6205090;23;20166;-78
2023/02/21 12:23:13;;;;;;;14.38;12.35;;;;;;;;;;6206446;23;20150;-78
2023/02/21 12:25:49;;;;;;;14.35;11.27;;;;;;;;;;6204769;23;20235;-83
2023/02/21 12:28:27;;;;;;;13.65;11.35;;;;;;;;;;6204212;23;20259;-80
2023/02/21 12:31:02;;;;;;;14.43;11.00;;;;;;;;;;6204615;23;20244;-78
2023/02/21 12:33:47;;;;;;;13.50;11.30;;;;;;;;;;6204170;23;20232;-78
2023/02/21 12:36:32;;;;;;;13.90;11.25;;;;;;;;;;6204327;23;20531;-80
2023/02/21 12:39:05;;;;;;;16.60;12.45;;;;;;;;;;6206123;23;20151;-79
2023/02/21 12:41:56;;;;;;;15.23;11.80;;;;;;;;;;6206212;23;20180;-78
2023/02/21 12:44:24;;;;;;;15.37;12.27;;;;;;;;;;6204184;23;20175;-78
2023/02/21 12:46:50;;;;;;;15.53;11.83;;;;;;;;;;6205998;23;20190;-79
2023/02/21 12:49:23;;;;;;;14.05;11.20;;;;;;;;;;6206277;23;20173;-79
2023/02/21 12:52:14;;;;;;;13.90;10.82;;;;;;;;;;6202775;23;20805;-78
2023/02/21 12:54:48;;;;;;;14.35;11.30;;;;;;;;;;6199333;23;20182;-83
2023/02/21 12:57:17;;;;;;;13.80;10.95;;;;;;;;;;6202638;23;20193;-79
2023/02/21 12:59:47;;;;;;;11.43;10.10;;;;;;;;;;6201860;23;20158;-78
2023/02/21 13:02:25;;;;;;;15.17;11.07;;;;;;;;;;6202709;23;20150;-78
2023/02/21 13:05:01;;;;;;;14.13;10.43;;;;;;;;;;6200439;23;20170;-78
2023/02/21 13:07:32;;;;;;;12.90;10.15;;;;;;;;;;6202583;23;20633;-78
2023/02/21 13:10:13;;;;;;;13.60;11.17;;;;;;;;;;6202655;23;20197;-79
2023/02/21 13:12:44;;;;;;;13.23;11.10;;;;;;;;;;6204137;23;20158;-78
2023/02/21 13:15:10;;;;;;;12.70;10.27;;;;;;;;;;6203788;23;20158;-78
2023/02/21 13:17:36;;;;;;;14.40;11.30;;;;;;;;;;6206469;23;20167;-78
2023/02/21 13:20:07;;;;;;;14.53;11.23;;;;;;;;;;6206454;23;20154;-78
2023/02/21 13:25:33;;;;;;;13.87;11.47;;;;;;;;;;6205742;23;20505;-79
2023/02/21 13:28:16;;;;;;;14.70;10.83;;;;;;;;;;6204226;23;20182;-78
2023/02/21 13:30:45;;;;;;;14.97;11.60;;;;;;;;;;6207626;23;20155;-79
2023/02/21 13:33:26;;;;;;;13.40;11.17;;;;;;;;;;6205181;23;20187;-79
2023/02/21 13:35:53;;;;;;;13.00;11.40;;;;;;;;;;6202828;23;20166;-79
2023/02/21 13:38:20;;;;;;;14.37;11.60;;;;;;;;;;6201812;23;20178;-78
2023/02/21 13:40:54;;;;;;;16.03;12.10;;;;;;;;;;6204753;23;20150;-78
2023/02/21 13:43:19;;;;;;;14.33;11.43;;;;;;;;;;6203796;23;20162;-79
2023/02/21 13:45:46;;;;;;;14.23;11.17;;;;;;;;;;6205077;23;20156;-78
2023/02/21 13:48:28;;;;;;;13.63;10.63;;;;;;;;;;6203674;23;20182;-78
2023/02/21 13:50:55;;;;;;;13.83;10.83;;;;;;;;;;6203757;23;20253;-78
2023/02/21 13:53:22;;;;;;;12.13;10.60;;;;;;;;;;6203655;23;20193;-80
2023/02/21 13:56:07;;;;;;;13.47;10.37;;;;;;;;;;6203159;23;20162;-78
2023/02/21 13:58:37;;;;;;;13.47;10.87;;;;;;;;;;6203742;23;20236;-78
2023/02/21 14:01:17;;;;;;;12.57;10.00;;;;;;;;;;6203402;23;20481;-80
2023/02/21 14:03:44;;;;;;;13.33;10.43;;;;;;;;;;6204497;23;20219;-76
2023/02/21 14:06:10;;;;;;;11.73;10.43;;;;;;;;;;6201970;23;20158;-79
2023/02/21 14:08:44;;;;;;;11.73;10.30;;;;;;;;;;6203401;23;20174;-78
2023/02/21 14:11:19;;;;;;;10.83;9.03;;;;;;;;;;6203874;23;20166;-77
2023/02/21 14:13:53;;;;;;;13.30;10.00;;;;;;;;;;6203222;23;20162;-78
2023/02/21 14:16:24;;;;;;;12.33;9.87;;;;;;;;;;6198922;23;20241;-79
2023/02/21 14:19:08;;;;;;;12.13;9.63;;;;;;;;;;6200996;23;20154;-80
2023/02/21 14:21:48;;;;;;;11.73;10.30;;;;;;;;;;6201111;23;20134;-78
2023/02/21 14:24:26;;;;;;;12.57;10.20;;;;;;;;;;6201123;23;20664;-79
2023/02/21 14:26:52;;;;;;;11.50;9.53;;;;;;;;;;6200169;23;20186;-77
2023/02/21 14:29:36;;;;;;;12.03;9.93;;;;;;;;;;6201109;23;20142;-77
2023/02/21 14:32:02;;;;;;;11.70;10.20;;;;;;;;;;6201650;23;20172;-79
2023/02/21 14:34:32;;;;;;;12.17;10.23;;;;;;;;;;6201261;23;20261;-78
2023/02/21 14:36:59;;;;;;;11.07;9.30;;;;;;;;;;6201643;23;20550;-78
2023/02/21 14:39:31;;;;;;;10.95;9.50;;;;;;;;;;6201822;23;20598;-79
2023/02/21 14:42:06;;;;;;;10.32;9.20;;;;;;;;;;6202359;23;20139;-78
2023/02/21 14:44:42;;;;;;;10.80;9.02;;;;;;;;;;6200173;23;20162;-80
2023/02/21 14:47:11;;;;;;;11.13;8.88;;;;;;;;;;6201741;23;20181;-78
2023/02/21 14:49:46;;;;;;;11.02;9.43;;;;;;;;;;6202769;23;20158;-77
2023/02/21 14:52:22;;;;;;;12.98;10.15;;;;;;;;;;6196931;23;20165;-78
2023/02/21 14:55:11;;;;;;;10.90;9.30;;;;;;;;;;6201404;23;20166;-77
2023/02/21 14:57:50;;;;;;;13.33;9.60;;;;;;;;;;6199666;23;20817;-77
2023/02/21 15:00:36;;;;;;;10.43;8.73;;;;;;;;;;6200914;23;20185;-79
2023/02/21 15:03:18;;;;;;;11.77;10.13;;;;;;;;;;6140023;23;20245;-78
2023/02/21 15:05:47;;;;;;;13.87;9.90;;;;;;;;;;6201602;23;20155;-80
2023/02/21 15:08:22;;;;;;;11.43;9.97;;;;;;;;;;6202865;23;20245;-79
2023/02/21 15:10:49;;;;;;;11.63;9.40;;;;;;;;;;6199797;23;20150;-78
2023/02/21 15:13:29;;;;;;;12.63;9.83;;;;;;;;;;6199231;23;20269;-78
2023/02/21 15:16:00;;;;;;;12.20;9.70;;;;;;;;;;6200158;23;20150;-77
2023/02/21 15:18:31;;;;;;;13.43;10.57;;;;;;;;;;6198979;23;20269;-79
2023/02/21 15:21:13;;;;;;;13.43;10.43;;;;;;;;;;6194600;23;20606;-79
2023/02/21 15:23:41;;;;;;;13.73;10.77;;;;;;;;;;6202744;23;20158;-79
2023/02/21 15:26:28;;;;;;;10.00;8.40;;;;;;;;;;6198045;23;20166;-78
2023/02/21 15:29:15;;;;;;;10.97;9.73;;;;;;;;;;6201698;23;20244;-79
2023/02/21 15:31:42;;;;;;;11.47;9.60;;;;;;;;;;6202528;23;20148;-78
2023/02/21 15:34:37;;;;;;;12.50;9.70;;;;;;;;;;6200976;23;20177;-80
2023/02/21 15:37:07;;;;;;;10.83;8.73;;;;;;;;;;6174482;23;20750;-79
2023/02/21 15:39:35;;;;;;;12.63;10.10;;;;;;;;;;6201807;23;20637;-77
2023/02/21 15:42:03;;;;;;;11.57;9.93;;;;;;;;;;6199857;23;20525;-79
2023/02/21 15:44:32;;;;;;;10.70;9.30;;;;;;;;;;6204266;23;20147;-78
2023/02/21 15:47:03;;;;;;;13.60;9.93;;;;;;;;;;6199302;23;20186;-78
2023/02/21 15:49:34;;;;;;;12.47;9.40;;;;;;;;;;6199831;23;20162;-80
2023/02/21 15:52:04;;;;;;;11.83;9.73;;;;;;;;;;6200079;23;20154;-78
2023/02/21 15:54:31;;;;;;;14.07;10.60;;;;;;;;;;6199914;23;20205;-76
2023/02/21 15:57:01;;;;;;;12.47;9.63;;;;;;;;;;6201716;23;20182;-78
2023/02/21 15:59:28;;;;;;;12.30;9.83;;;;;;;;;;6201546;23;20169;-79
2023/02/21 16:02:13;;;;;;;15.13;11.23;;;;;;;;;;6201109;23;20154;-78
2023/02/21 16:04:41;;;;;;;13.67;10.53;;;;;;;;;;6202113;23;20480;-78
2023/02/21 16:07:13;;;;;;;13.43;10.40;;;;;;;;;;6201016;23;20201;-79
2023/02/21 16:09:41;;;;;;;12.63;9.90;;;;;;;;;;6201469;23;20189;-78
2023/02/21 16:12:07;;;;;;;12.83;10.40;;;;;;;;;;6201639;23;20162;-78
2023/02/21 16:15:00;;;;;;;14.13;10.87;;;;;;;;;;6200066;23;20232;-79
2023/02/21 16:17:36;;;;;;;14.50;10.57;;;;;;;;;;6165229;23;20183;-79
2023/02/21 16:20:13;;;;;;;14.00;10.93;;;;;;;;;;6200169;23;20625;-77
2023/02/21 16:22:40;;;;;;;15.13;11.03;;;;;;;;;;6202478;23;20570;-80
2023/02/21 16:25:08;;;;;;;16.33;11.10;;;;;;;;;;6201039;23;20947;-79
2023/02/21 16:27:34;;;;;;;14.87;11.17;;;;;;;;;;6200626;23;20178;-80
2023/02/21 16:30:00;;;;;;;15.30;11.33;;;;;;;;;;6200149;23;20247;-79
2023/02/21 16:32:26;;;;;;;16.23;11.73;;;;;;;;;;6201952;23;20158;-77
2023/02/21 16:34:53;;;;;;;16.83;12.03;;;;;;;;;;6202028;23;20174;-77
2023/02/21 16:37:20;;;;;;;16.80;11.93;;;;;;;;;;6200565;23;20293;-80
2023/02/21 16:39:46;;;;;;;16.40;11.70;;;;;;;;;;6201481;23;20157;-79
2023/02/21 16:42:12;;;;;;;15.83;11.43;;;;;;;;;;6204075;23;20296;-79
2023/02/21 16:44:39;;;;;;;15.30;11.67;;;;;;;;;;6201008;23;20199;-79
2023/02/21 16:47:05;;;;;;;16.33;12.67;;;;;;;;;;6201422;23;20193;-80
2023/02/21 16:49:31;;;;;;;16.43;12.50;;;;;;;;;;6200168;23;20163;-79
2023/02/21 16:51:57;;;;;;;16.47;12.17;;;;;;;;;;6201615;23;20143;-81
2023/02/21 16:54:23;;;;;;;16.40;12.70;;;;;;;;;;6199636;23;20185;-81
2023/02/21 16:56:51;;;;;;;17.27;12.37;;;;;;;;;;6199425;23;20194;-81
2023/02/21 16:59:18;;;;;;;16.07;12.27;;;;;;;;;;6201570;23;20162;-81
2023/02/21 17:01:45;;;;;;;16.07;12.50;;;;;;;;;;6202240;23;20221;-80
2023/02/21 17:04:15;;;;;;;21.07;14.13;;;;;;;;;;6201648;23;20151;-80
2023/02/21 17:06:41;;;;;;;17.97;13.43;;;;;;;;;;6199481;23;20278;-76
2023/02/21 17:09:07;;;;;;;17.03;12.73;;;;;;;;;;6199896;23;20169;-79
2023/02/21 17:11:33;;;;;;;19.47;12.60;;;;;;;;;;6199718;23;20154;-79
2023/02/21 17:13:59;;;;;;;19.17;13.90;;;;;;;;;;6195519;23;20193;-79
2023/02/21 17:16:25;;;;;;;17.73;13.07;;;;;;;;;;6202432;23;20280;-80
2023/02/21 17:18:51;;;;;;;17.40;13.03;;;;;;;;;;6202115;23;20159;-79
2023/02/21 17:21:17;;;;;;;16.60;12.37;;;;;;;;;;6203044;23;20201;-81
2023/02/21 17:23:42;;;;;;;18.77;13.87;;;;;;;;;;6202903;23;20237;-77
2023/02/21 17:26:11;;;;;;;18.27;13.23;;;;;;;;;;6197692;23;20768;-78
2023/02/21 17:28:38;;;;;;;19.97;14.93;;;;;;;;;;6201305;23;20182;-78
2023/02/21 17:31:04;;;;;;;19.13;13.83;;;;;;;;;;6201048;23;20614;-80
2023/02/21 17:33:30;;;;;;;20.13;14.33;;;;;;;;;;6201116;23;20371;-80
2023/02/21 17:35:56;;;;;;;19.50;13.47;;;;;;;;;;6203333;23;20193;-82
2023/02/21 17:38:22;;;;;;;19.07;13.70;;;;;;;;;;6199687;23;20210;-78
2023/02/21 17:40:48;;;;;;;18.77;13.97;;;;;;;;;;6201828;23;20224;-80
2023/02/21 17:43:15;;;;;;;20.57;14.30;;;;;;;;;;6204045;23;20489;-83
2023/02/21 17:45:41;;;;;;;22.90;15.53;;;;;;;;;;6204813;23;20173;-83
2023/02/21 17:48:07;;;;;;;24.73;15.27;;;;;;;;;;6205638;23;20182;-79
2023/02/21 17:50:33;;;;;;;26.43;17.73;;;;;;;;;;6202420;23;20169;-79
2023/02/21 17:52:59;;;;;;;25.57;17.50;;;;;;;;;;6205345;23;20158;-79
2023/02/21 17:55:27;;;;;;;26.30;17.23;;;;;;;;;;6203548;23;20164;-79
2023/02/21 17:57:53;;;;;;;23.17;16.57;;;;;;;;;;6204618;23;20941;-80
2023/02/21 18:00:21;;;;;;;25.43;18.67;;;;;;;;;;6202570;23;20493;-79
2023/02/21 18:02:48;;;;;;;23.03;15.77;;;;;;;;;;6205005;23;20474;-80
2023/02/21 18:05:14;;;;;;;24.53;16.40;;;;;;;;;;6204144;23;20577;-80
2023/02/21 18:07:40;;;;;;;22.53;15.43;;;;;;;;;;6205766;23;20181;-79
2023/02/21 18:10:06;;;;;;;25.83;17.10;;;;;;;;;;6205028;23;20158;-77
2023/02/21 18:12:32;;;;;;;23.53;15.73;;;;;;;;;;6201946;23;20169;-78
2023/02/21 18:14:58;;;;;;;24.47;15.83;;;;;;;;;;6203181;23;20188;-80
2023/02/21 18:17:24;;;;;;;25.03;15.73;;;;;;;;;;6203533;23;20340;-79
2023/02/21 18:19:50;;;;;;;24.83;15.83;;;;;;;;;;6203689;23;20229;-78
2023/02/21 18:22:16;;;;;;;24.33;16.50;;;;;;;;;;6206771;23;20150;-78
2023/02/21 18:24:42;;;;;;;24.83;15.97;;;;;;;;;;6201464;23;20201;-80
2023/02/21 18:27:09;;;;;;;23.17;14.87;;;;;;;;;;6203833;23;20182;-80
2023/02/21 18:29:35;;;;;;;24.40;16.30;;;;;;;;;;6203936;23;20158;-79
2023/02/21 18:32:02;;;;;;;26.40;17.23;;;;;;;;;;6204350;23;20719;-79
2023/02/21 18:34:28;;;;;;;26.50;16.43;;;;;;;;;;6201875;23;20257;-79
2023/02/21 18:36:54;;;;;;;24.73;16.87;;;;;;;;;;6203119;23;20212;-79
2023/02/21 18:39:21;;;;;;;25.73;16.83;;;;;;;;;;6203600;23;20162;-78
2023/02/21 18:41:48;;;;;;;23.73;16.17;;;;;;;;;;6204454;23;20340;-80
2023/02/21 18:44:14;;;;;;;24.00;16.27;;;;;;;;;;6203468;23;20166;-81
2023/02/21 18:46:44;;;;;;;25.63;16.20;;;;;;;;;;6203630;23;20158;-79
2023/02/21 18:49:12;;;;;;;25.97;16.70;;;;;;;;;;6205206;23;20146;-81
2023/02/21 18:51:38;;;;;;;25.83;16.27;;;;;;;;;;6205900;23;20213;-79
2023/02/21 18:54:04;;;;;;;26.77;17.00;;;;;;;;;;6204933;23;20178;-79
2023/02/21 18:56:30;;;;;;;27.03;16.63;;;;;;;;;;6203644;23;20184;-78
2023/02/21 18:58:56;;;;;;;23.23;15.47;;;;;;;;;;6204578;23;21040;-78
2023/02/21 19:01:24;;;;;;;28.00;17.23;;;;;;;;;;6202755;23;20505;-77
2023/02/21 19:03:51;;;;;;;27.77;17.00;;;;;;;;;;6202933;23;20293;-79
2023/02/21 19:06:18;;;;;;;26.63;16.13;;;;;;;;;;6202292;23;20484;-79
2023/02/21 19:08:45;;;;;;;28.80;16.03;;;;;;;;;;6204060;23;20170;-78
2023/02/21 19:11:14;;;;;;;26.37;16.53;;;;;;;;;;6205136;23;20601;-79
2023/02/21 19:13:40;;;;;;;24.17;15.50;;;;;;;;;;6204649;23;20249;-78
2023/02/21 19:16:06;;;;;;;25.73;16.27;;;;;;;;;;6202781;23;20150;-79
2023/02/21 19:18:33;;;;;;;24.90;16.30;;;;;;;;;;6204658;23;20714;-79
2023/02/21 19:20:59;;;;;;;25.83;16.67;;;;;;;;;;6203367;23;20147;-80
2023/02/21 19:23:26;;;;;;;25.17;15.83;;;;;;;;;;6202014;23;20510;-77
2023/02/21 19:25:53;;;;;;;24.90;15.33;;;;;;;;;;6200205;23;20932;-80
2023/02/21 19:28:19;;;;;;;23.53;15.13;;;;;;;;;;6202550;23;20542;-79
2023/02/21 19:30:45;;;;;;;27.60;16.97;;;;;;;;;;6204176;23;20158;-80
2023/02/21 19:33:11;;;;;;;26.63;16.40;;;;;;;;;;6204650;23;20158;-78
2023/02/21 19:35:38;;;;;;;26.10;17.13;;;;;;;;;;6200870;23;20158;-78
2023/02/21 19:38:05;;;;;;;27.23;16.93;;;;;;;;;;6202028;23;20185;-79
2023/02/21 19:40:32;;;;;;;26.93;17.87;;;;;;;;;;6202883;23;20167;-81
2023/02/21 19:42:58;;;;;;;27.33;16.87;;;;;;;;;;6202631;23;20209;-79
2023/02/21 19:45:24;;;;;;;29.00;17.13;;;;;;;;;;6202661;23;20158;-79
2023/02/21 19:47:50;;;;;;;30.20;17.77;;;;;;;;;;6202185;23;20672;-79
2023/02/21 19:50:16;;;;;;;29.33;17.13;;;;;;;;;;6202665;23;20159;-79
2023/02/21 19:52:42;;;;;;;29.27;16.57;;;;;;;;;;6203877;23;20156;-79
2023/02/21 19:55:08;;;;;;;27.07;16.93;;;;;;;;;;6204141;23;20305;-77
2023/02/21 19:57:34;;;;;;;28.20;16.30;;;;;;;;;;6202512;23;20190;-79
2023/02/21 20:00:00;;;;;;;27.87;15.97;;;;;;;;;;6203437;23;20160;-78
2023/02/21 20:02:26;;;;;;;30.13;17.23;;;;;;;;;;6203385;23;20217;-79
2023/02/21 20:04:52;;;;;;;28.03;16.20;;;;;;;;;;6202375;23;20162;-79
2023/02/21 20:07:19;;;;;;;30.30;17.87;;;;;;;;;;6200265;23;20187;-78
2023/02/21 20:09:45;;;;;;;28.43;16.73;;;;;;;;;;6201383;23;20158;-79
2023/02/21 20:12:12;;;;;;;32.30;17.57;;;;;;;;;;6203182;23;20162;-79
2023/02/21 20:14:38;;;;;;;29.03;16.63;;;;;;;;;;6200585;23;20818;-77
2023/02/21 20:17:04;;;;;;;25.23;16.03;;;;;;;;;;6200375;23;20178;-78
2023/02/21 20:19:30;;;;;;;29.83;16.63;;;;;;;;;;6203125;23;20162;-79
2023/02/21 20:21:56;;;;;;;31.53;16.90;;;;;;;;;;6203695;23;20150;-79
2023/02/21 20:24:22;;;;;;;27.20;15.60;;;;;;;;;;6199281;23;20160;-79
2023/02/21 20:26:52;;;;;;;28.70;16.60;;;;;;;;;;6202191;23;20222;-79
2023/02/21 20:29:20;;;;;;;29.47;16.47;;;;;;;;;;6205992;23;20174;-78
2023/02/21 20:31:46;;;;;;;30.67;17.17;;;;;;;;;;6203726;23;20181;-79
2023/02/21 20:34:12;;;;;;;30.23;17.60;;;;;;;;;;6201394;23;20638;-77
2023/02/21 20:36:41;;;;;;;30.33;17.20;;;;;;;;;;6201748;23;20158;-77
2023/02/21 20:39:17;;;;;;;32.50;17.97;;;;;;;;;;6201799;23;20158;-79
2023/02/21 20:41:44;;;;;;;28.07;16.67;;;;;;;;;;6202192;23;20154;-79
2023/02/21 20:44:11;;;;;;;26.47;16.43;;;;;;;;;;6202028;23;20166;-79
2023/02/21 20:46:37;;;;;;;26.33;15.40;;;;;;;;;;6201759;23;20166;-78
2023/02/21 20:49:05;;;;;;;29.90;17.43;;;;;;;;;;6201982;23;20173;-78
2023/02/21 20:51:33;;;;;;;26.67;16.57;;;;;;;;;;6202114;23;20218;-79
2023/02/21 20:53:59;;;;;;;29.77;17.40;;;;;;;;;;6201783;23;20235;-78
2023/02/21 20:56:30;;;;;;;28.53;17.90;;;;;;;;;;6201300;23;20174;-79
2023/02/21 20:58:56;;;;;;;31.77;19.10;;;;;;;;;;6204012;23;20150;-78
2023/02/21 21:01:22;;;;;;;31.57;18.70;;;;;;;;;;6202044;23;20158;-78
2023/02/21 21:03:48;;;;;;;32.57;20.40;;;;;;;;;;6202045;23;20162;-79
2023/02/21 21:06:14;;;;;;;30.47;18.07;;;;;;;;;;6203024;23;20182;-79
2023/02/21 21:08:40;;;;;;;32.30;18.93;;;;;;;;;;6201978;23;20532;-79
2023/02/21 21:11:07;;;;;;;32.37;19.20;;;;;;;;;;6201853;23;20512;-78
2023/02/21 21:13:35;;;;;;;33.70;18.80;;;;;;;;;;6204657;23;20304;-81
2023/02/21 21:16:01;;;;;;;30.23;17.33;;;;;;;;;;6202024;23;20166;-79
2023/02/21 21:18:27;;;;;;;31.13;18.00;;;;;;;;;;6201244;23;20174;-79
2023/02/21 21:20:53;;;;;;;31.60;18.13;;;;;;;;;;6203464;23;20146;-79
2023/02/21 21:23:19;;;;;;;35.87;18.93;;;;;;;;;;6203578;23;20158;-79
2023/02/21 21:25:45;;;;;;;31.47;18.13;;;;;;;;;;6199331;23;20185;-79
2023/02/21 21:28:12;;;;;;;39.03;23.10;;;;;;;;;;6203413;23;20206;-80
2023/02/21 21:30:39;;;;;;;57.63;33.37;;;;;;;;;;6201249;23;20155;-80
2023/02/21 21:33:06;;;;;;;52.80;29.57;;;;;;;;;;6202046;23;20161;-78
2023/02/21 21:35:35;;;;;;;46.97;27.07;;;;;;;;;;6201699;23;20241;-79
2023/02/21 21:38:02;;;;;;;42.33;23.27;;;;;;;;;;6201522;23;20193;-79
2023/02/21 21:40:28;;;;;;;37.20;22.93;;;;;;;;;;6203405;23;20266;-81
2023/02/21 21:42:54;;;;;;;45.23;26.63;;;;;;;;;;6202350;23;20538;-79
2023/02/21 21:45:21;;;;;;;46.47;26.87;;;;;;;;;;6201503;23;20245;-79
2023/02/21 21:47:48;;;;;;;41.10;24.70;;;;;;;;;;6200871;23;20193;-77
2023/02/21 21:50:15;;;;;;;41.13;24.17;;;;;;;;;;6203533;23;20155;-79
2023/02/21 21:52:49;;;;;;;42.40;24.50;;;;;;;;;;6200797;23;20574;-79
2023/02/21 21:55:16;;;;;;;37.57;21.93;;;;;;;;;;6200837;23;20231;-79
2023/02/21 21:57:42;;;;;;;33.53;19.57;;;;;;;;;;6200271;23;20200;-79
2023/02/21 22:00:20;;;;;;;30.67;18.03;;;;;;;;;;6202236;23;20174;-78
2023/02/21 22:02:46;;;;;;;27.17;16.67;;;;;;;;;;6202777;23;20138;-77
2023/02/21 22:05:13;;;;;;;29.93;16.70;;;;;;;;;;6202679;23;20162;-79
2023/02/21 22:07:41;;;;;;;36.17;19.63;;;;;;;;;;6204252;23;20190;-79
2023/02/21 22:10:10;;;;;;;33.17;18.77;;;;;;;;;;6204948;23;20169;-79
2023/02/21 22:12:36;;;;;;;34.97;20.00;;;;;;;;;;6205076;23;20301;-79
2023/02/21 22:15:02;;;;;;;37.00;20.57;;;;;;;;;;6204746;23;20185;-79
2023/02/21 22:17:28;;;;;;;34.03;19.13;;;;;;;;;;6206168;23;20309;-77
2023/02/21 22:19:54;;;;;;;31.73;17.30;;;;;;;;;;6204892;23;20211;-79
2023/02/21 22:22:21;;;;;;;30.23;17.33;;;;;;;;;;6204958;23;20169;-79
2023/02/21 22:24:47;;;;;;;31.30;18.17;;;;;;;;;;6204739;23;20253;-79
2023/02/21 22:27:14;;;;;;;30.53;17.17;;;;;;;;;;6205970;23;20197;-80
2023/02/21 22:29:40;;;;;;;34.13;18.70;;;;;;;;;;6206369;23;20168;-79
2023/02/21 22:32:09;;;;;;;33.03;18.60;;;;;;;;;;6206882;23;20245;-82
2023/02/21 22:34:35;;;;;;;28.67;16.50;;;;;;;;;;6204312;23;20173;-81
2023/02/21 22:37:01;;;;;;;30.03;16.70;;;;;;;;;;6205671;23;20171;-78
2023/02/21 22:39:27;;;;;;;34.70;18.47;;;;;;;;;;6205162;23;20159;-79
2023/02/21 22:41:53;;;;;;;31.67;18.47;;;;;;;;;;6204758;23;20299;-79
2023/02/21 22:44:23;;;;;;;28.07;16.23;;;;;;;;;;6206323;23;20740;-80
2023/02/21 22:46:56;;;;;;;28.43;16.73;;;;;;;;;;6204913;23;20244;-79
2023/02/21 22:49:22;;;;;;;33.43;17.70;;;;;;;;;;6206483;23;20138;-81
2023/02/21 22:51:49;;;;;;;34.37;19.03;;;;;;;;;;6205156;23;20569;-79
2023/02/21 22:54:15;;;;;;;31.63;18.17;;;;;;;;;;6204529;23;20210;-79
2023/02/21 22:56:49;;;;;;;34.43;17.97;;;;;;;;;;6204158;23;20178;-77
2023/02/21 22:59:16;;;;;;;34.37;18.07;;;;;;;;;;6205154;23;20146;-79
2023/02/21 23:01:44;;;;;;;30.87;17.10;;;;;;;;;;6204632;23;20166;-78
2023/02/21 23:04:14;;;;;;;29.63;17.63;;;;;;;;;;6206275;23;20177;-79
2023/02/21 23:06:41;;;;;;;31.90;17.50;;;;;;;;;;6206543;23;20139;-81
2023/02/21 23:09:13;;;;;;;34.20;19.63;;;;;;;;;;6208852;23;20190;-78
2023/02/21 23:11:40;;;;;;;34.33;17.77;;;;;;;;;;6207575;23;20155;-78
2023/02/21 23:14:07;;;;;;;39.00;20.63;;;;;;;;;;6207183;23;20182;-78
2023/02/21 23:16:33;;;;;;;34.93;18.37;;;;;;;;;;6208074;23;20161;-80
2023/02/21 23:18:59;;;;;;;33.67;17.23;;;;;;;;;;6207299;23;20150;-81
2023/02/21 23:21:25;;;;;;;34.20;18.47;;;;;;;;;;6208377;23;20146;-79
2023/02/21 23:23:51;;;;;;;30.87;17.10;;;;;;;;;;6208500;23;20165;-81
2023/02/21 23:26:18;;;;;;;31.20;17.33;;;;;;;;;;6206398;23;20169;-78
2023/02/21 23:28:45;;;;;;;27.93;16.67;;;;;;;;;;6207820;23;21114;-78
2023/02/21 23:31:12;;;;;;;30.47;16.70;;;;;;;;;;6208574;23;20165;-79
2023/02/21 23:33:38;;;;;;;31.63;18.03;;;;;;;;;;6206621;23;20220;-80
2023/02/21 23:36:04;;;;;;;29.77;15.53;;;;;;;;;;6208603;23;20147;-81
2023/02/21 23:38:30;;;;;;;42.30;19.80;;;;;;;;;;6206499;23;20174;-78
2023/02/21 23:40:57;;;;;;;34.57;17.53;;;;;;;;;;6206591;23;20165;-79
2023/02/21 23:43:34;;;;;;;37.07;19.80;;;;;;;;;;6208253;23;20211;-81
2023/02/21 23:46:00;;;;;;;39.00;18.37;;;;;;;;;;6206761;23;20150;-78
2023/02/21 23:48:28;;;;;;;33.17;17.33;;;;;;;;;;6208192;23;20653;-79
2023/02/21 23:50:56;;;;;;;30.87;16.83;;;;;;;;;;6208521;23;20155;-80
2023/02/21 23:53:25;;;;;;;32.17;16.67;;;;;;;;;;6207898;23;20158;-79
2023/02/21 23:55:55;;;;;;;30.03;16.20;;;;;;;;;;6206218;23;20306;-79
2023/02/21 23:58:25;;;;;;;37.53;17.83;;;;;;;;;;6207717;23;20314;-81
